Time;durP1;ratioP1;P1;durP2;ratioP2;P2;SDS_P1;SDS_P2;PMS_P1;PMS_P2;Temp;Humidity;BMP_temperature;BMP_pressure;BME280_temperature;BME280_humidity;BME280_pressure;Samples;Min_cycle;Max_cycle;Signal;HPM_P1;HPM_P2
2021/06/28 00:46:58;;;;;;;13.90;9.20;;;18.60;97.30;;;;;;6216889;23;20454;-92
2021/06/28 00:49:39;;;;;;;17.90;8.40;;;18.60;97.30;;;;;;6190871;23;20389;-92
2021/06/28 00:52:37;;;;;;;13.30;7.90;;;18.60;97.30;;;;;;6191096;23;20408;-92
2021/06/28 00:55:08;;;;;;;14.30;7.97;;;18.60;97.30;;;;;;6193077;23;20391;-92
2021/06/28 01:00:39;;;;;;;10.67;7.73;;;18.60;97.30;;;;;;6214118;22;20457;-93
2021/06/28 01:03:29;;;;;;;8.83;6.90;;;18.60;97.30;;;;;;6096142;23;20380;-93
2021/06/28 01:06:39;;;;;;;11.30;8.70;;;18.60;97.30;;;;;;6214809;23;20455;-93
2021/06/28 01:25:28;;;;;;;12.13;8.13;;;18.50;97.30;;;;;;6214920;22;20451;-93
2021/06/28 01:28:09;;;;;;;26.07;9.97;;;18.60;97.30;;;;;;6189209;23;20392;-92
2021/06/28 01:31:29;;;;;;;18.00;7.90;;;18.60;97.30;;;;;;6189422;23;20383;-92
2021/06/28 01:34:29;;;;;;;13.70;7.80;;;18.60;97.30;;;;;;6165634;23;20387;-93
2021/06/28 01:38:19;;;;;;;15.13;8.40;;;18.70;97.30;;;;;;6189484;23;20392;-93
2021/06/28 01:40:29;;;;;;;16.87;7.83;;;18.70;97.30;;;;;;6095208;23;20422;-94
2021/06/28 01:43:18;;;;;;;12.90;8.73;;;18.60;97.30;;;;;;6072098;23;20412;-93
2021/06/28 01:46:09;;;;;;;15.73;8.50;;;18.60;97.30;;;;;;5986839;23;20390;-94
2021/06/28 01:48:39;;;;;;;16.13;9.47;;;18.70;97.30;;;;;;5986788;23;20411;-93
2021/06/28 01:51:09;;;;;;;14.07;7.80;;;18.70;97.30;;;;;;6010130;23;20398;-93
2021/06/28 01:54:18;;;;;;;25.13;9.60;;;18.70;97.30;;;;;;6005658;23;20379;-93
2021/06/28 01:59:48;;;;;;;12.10;7.40;;;18.70;97.30;;;;;;6045933;23;20444;-93
2021/06/28 02:02:28;;;;;;;17.57;9.00;;;18.70;97.30;;;;;;6076649;23;20412;-94
2021/06/28 02:04:59;;;;;;;13.27;8.80;;;18.70;97.30;;;;;;6189153;23;20379;-93
2021/06/28 02:12:39;;;;;;;13.73;8.63;;;18.80;97.30;;;;;;6213424;22;20432;-92
2021/06/28 02:20:19;;;;;;;12.17;7.83;;;18.80;97.30;;;;;;6213503;22;20983;-93
2021/06/28 02:22:49;;;;;;;12.90;8.23;;;18.80;97.30;;;;;;6189028;23;20414;-92
2021/06/28 02:25:19;;;;;;;21.90;8.10;;;18.70;97.30;;;;;;6180662;23;20448;-93
2021/06/28 02:27:48;;;;;;;20.93;8.20;;;18.70;97.30;;;;;;6183278;23;20420;-93
2021/06/28 03:09:29;;;;;;;21.20;8.40;;;18.70;97.30;;;;;;6213848;23;20439;-93
2021/06/28 03:35:19;;;;;;;18.00;8.07;;;18.80;97.30;;;;;;6189824;23;20435;-92
2021/06/28 03:38:06;;;;;;;14.63;8.90;;;18.80;97.30;;;;;;6204891;23;20446;-93
2021/06/28 03:43:09;;;;;;;12.80;8.27;;;18.80;97.30;;;;;;6210949;22;20438;-96
2021/06/28 03:46:19;;;;;;;11.23;8.87;;;18.70;97.30;;;;;;6212646;23;20449;-92
2021/06/28 03:48:48;;;;;;;12.67;8.00;;;18.70;97.30;;;;;;6212506;23;20415;-94
2021/06/28 04:08:38;;;;;;;;;;;;;;;;;;;;;
2021/06/28 04:18:08;;;;;;;12.60;7.97;;;18.80;97.30;;;;;;6045784;23;20586;-91
2021/06/28 04:31:17;;;;;;;13.60;9.60;;;18.90;97.30;;;;;;6212862;23;20462;-93
2021/06/28 04:47:48;;;;;;;16.90;10.37;;;19.10;97.30;;;;;;6207167;23;20481;-96
2021/06/28 04:56:40;;;;;;;14.87;10.30;;;19.20;97.30;;;;;;6214287;23;20525;-92
2021/06/28 05:02:36;;;;;;;20.73;11.27;;;19.30;97.30;;;;;;6193631;22;20451;-80
2021/06/28 05:05:03;;;;;;;14.80;10.67;;;19.30;97.30;;;;;;6169361;23;20384;-80
2021/06/28 05:07:29;;;;;;;15.20;10.87;;;19.40;97.30;;;;;;6164652;23;20372;-80
2021/06/28 05:09:56;;;;;;;16.53;11.37;;;19.40;97.30;;;;;;6161667;23;20391;-79
2021/06/28 05:12:21;;;;;;;21.13;10.73;;;19.50;97.30;;;;;;6161238;23;20203;-80
2021/06/28 05:14:47;;;;;;;15.70;11.23;;;19.50;97.30;;;;;;6162884;23;20857;-79
2021/06/28 05:17:13;;;;;;;13.30;11.27;;;19.50;97.30;;;;;;6162239;23;20156;-80
2021/06/28 05:19:38;;;;;;;16.60;11.40;;;19.60;97.30;;;;;;6164963;23;20160;-80
2021/06/28 05:22:04;;;;;;;17.00;10.47;;;19.60;97.30;;;;;;6160374;23;20222;-79
2021/06/28 05:24:31;;;;;;;13.60;10.20;;;19.60;97.30;;;;;;6164668;23;20160;-82
2021/06/28 05:26:57;;;;;;;13.07;10.37;;;19.70;97.30;;;;;;6161816;23;20157;-81
2021/06/28 05:29:23;;;;;;;18.80;11.77;;;19.70;97.30;;;;;;6165344;23;20390;-81
2021/06/28 05:31:49;;;;;;;15.43;11.23;;;19.80;97.30;;;;;;6194007;23;20267;-81
2021/06/28 05:34:16;;;;;;;16.53;11.60;;;19.80;97.30;;;;;;6169916;23;20157;-81
2021/06/28 05:36:47;;;;;;;21.60;12.07;;;19.80;97.30;;;;;;6166009;23;20905;-81
2021/06/28 05:39:14;;;;;;;14.93;11.13;;;19.90;97.30;;;;;;6193805;23;20372;-81
2021/06/28 05:41:39;;;;;;;16.73;10.93;;;19.90;97.30;;;;;;6164986;23;20423;-82
2021/06/28 05:44:06;;;;;;;19.40;13.83;;;20.00;97.30;;;;;;6164563;23;20395;-81
2021/06/28 05:46:31;;;;;;;21.50;12.03;;;20.00;97.30;;;;;;6165152;23;20209;-81
2021/06/28 05:48:57;;;;;;;18.43;12.63;;;20.10;97.30;;;;;;6170380;23;20391;-81
2021/06/28 05:51:29;;;;;;;17.40;12.17;;;20.10;97.30;;;;;;6162922;23;20180;-81
2021/06/28 05:53:55;;;;;;;17.03;12.20;;;20.20;97.30;;;;;;6164623;23;20187;-82
2021/06/28 05:56:21;;;;;;;16.97;12.03;;;20.30;97.30;;;;;;6163942;23;20395;-82
2021/06/28 05:58:46;;;;;;;22.37;12.70;;;20.30;97.30;;;;;;6164254;23;20381;-83
2021/06/28 06:01:14;;;;;;;24.27;12.07;;;20.30;97.30;;;;;;6161724;23;20208;-81
2021/06/28 06:03:40;;;;;;;17.87;12.33;;;20.40;97.30;;;;;;6163077;23;20244;-81
2021/06/28 06:06:06;;;;;;;22.63;12.13;;;20.40;97.30;;;;;;6162285;23;20388;-82
2021/06/28 06:08:34;;;;;;;19.07;11.60;;;20.40;97.30;;;;;;6164788;23;20157;-82
2021/06/28 06:11:00;;;;;;;15.50;11.83;;;20.40;97.30;;;;;;6166050;23;20177;-81
2021/06/28 06:13:27;;;;;;;15.63;12.23;;;20.50;97.30;;;;;;6164980;23;20391;-81
2021/06/28 06:15:53;;;;;;;19.73;12.63;;;20.50;97.30;;;;;;6188331;23;20168;-78
2021/06/28 06:18:20;;;;;;;16.80;12.93;;;20.50;97.30;;;;;;6160450;23;20392;-79
2021/06/28 06:20:47;;;;;;;16.03;11.83;;;20.50;97.30;;;;;;6160374;23;20522;-78
2021/06/28 06:23:13;;;;;;;16.47;11.97;;;20.60;97.30;;;;;;6159049;23;20384;-78
2021/06/28 06:25:40;;;;;;;19.17;12.90;;;20.60;97.30;;;;;;6158218;23;20459;-79
2021/06/28 06:28:06;;;;;;;20.07;13.00;;;20.70;97.30;;;;;;6184412;23;20919;-78
2021/06/28 06:30:32;;;;;;;18.87;13.33;;;20.70;97.30;;;;;;6158817;23;20395;-78
2021/06/28 06:32:58;;;;;;;20.13;12.77;;;20.80;97.30;;;;;;6184624;23;20387;-78
2021/06/28 06:35:25;;;;;;;19.00;12.77;;;20.90;97.30;;;;;;6157636;23;20234;-78
2021/06/28 06:37:53;;;;;;;25.90;13.40;;;20.90;97.30;;;;;;6157315;23;20387;-78
2021/06/28 06:40:20;;;;;;;32.70;12.87;;;21.00;97.30;;;;;;6158006;23;20759;-78
2021/06/28 06:42:46;;;;;;;16.60;12.57;;;21.10;97.30;;;;;;6158598;23;20861;-78
2021/06/28 06:45:14;;;;;;;22.97;14.00;;;21.10;97.30;;;;;;6157556;23;20441;-78
2021/06/28 06:47:40;;;;;;;16.93;13.17;;;21.20;97.30;;;;;;6156815;23;20378;-79
2021/06/28 06:50:06;;;;;;;19.53;13.10;;;21.30;97.30;;;;;;6158731;23;20449;-79
2021/06/28 06:52:32;;;;;;;20.73;12.23;;;21.30;97.30;;;;;;6157792;23;20435;-78
2021/06/28 06:54:57;;;;;;;18.13;11.80;;;21.40;97.30;;;;;;6157340;23;20384;-78
2021/06/28 06:57:23;;;;;;;19.03;11.70;;;21.50;97.30;;;;;;6157264;23;20158;-78
2021/06/28 06:59:48;;;;;;;18.10;12.57;;;21.50;97.30;;;;;;6158585;23;20182;-79
2021/06/28 07:02:14;;;;;;;24.73;12.40;;;21.50;97.30;;;;;;6158770;23;20243;-78
2021/06/28 07:04:39;;;;;;;21.83;12.17;;;21.60;97.30;;;;;;6157629;23;20164;-78
2021/06/28 07:07:05;;;;;;;23.13;12.53;;;21.70;97.30;;;;;;6157527;23;20606;-77
2021/06/28 07:09:30;;;;;;;35.00;13.53;;;21.70;97.30;;;;;;6184169;23;20187;-78
2021/06/28 07:11:56;;;;;;;22.67;12.10;;;21.80;97.30;;;;;;6159222;23;20618;-78
2021/06/28 07:14:22;;;;;;;19.90;11.87;;;21.90;97.30;;;;;;6156610;23;20163;-78
2021/06/28 07:16:48;;;;;;;14.30;11.60;;;21.90;97.30;;;;;;6157166;23;20308;-78
2021/06/28 07:19:14;;;;;;;18.43;12.07;;;22.00;97.30;;;;;;6158300;23;20388;-79
2021/06/28 07:21:40;;;;;;;18.77;11.83;;;22.00;97.30;;;;;;6157951;23;20193;-78
2021/06/28 07:24:06;;;;;;;16.50;10.80;;;22.10;97.30;;;;;;6157241;23;20161;-78
2021/06/28 07:26:39;;;;;;;17.07;13.17;;;22.10;97.30;;;;;;6157227;23;20164;-78
2021/06/28 07:29:08;;;;;;;17.87;11.50;;;22.20;97.30;;;;;;6157629;23;20429;-78
2021/06/28 07:31:34;;;;;;;13.83;11.30;;;22.20;97.30;;;;;;6158178;23;20415;-78
2021/06/28 07:34:00;;;;;;;17.40;12.60;;;22.30;97.30;;;;;;6156820;23;20384;-78
2021/06/28 07:36:25;;;;;;;18.20;11.90;;;22.30;97.30;;;;;;6157216;23;20161;-79
2021/06/28 07:38:51;;;;;;;19.37;12.40;;;22.40;97.30;;;;;;6157765;23;20188;-79
2021/06/28 07:41:17;;;;;;;14.67;12.20;;;22.50;97.30;;;;;;6184004;23;20226;-78
2021/06/28 07:43:42;;;;;;;12.73;9.93;;;22.60;97.30;;;;;;6157782;23;20156;-78
2021/06/28 07:46:08;;;;;;;20.57;10.90;;;22.70;97.30;;;;;;6185096;23;20465;-79
2021/06/28 07:48:34;;;;;;;13.60;10.50;;;22.80;97.30;;;;;;6158327;23;20160;-79
2021/06/28 07:51:00;;;;;;;12.10;10.07;;;22.90;97.30;;;;;;6184811;23;20176;-78
2021/06/28 07:53:26;;;;;;;16.67;10.23;;;23.00;97.30;;;;;;6157174;23;20850;-79
2021/06/28 07:55:51;;;;;;;13.90;10.80;;;23.20;97.30;;;;;;6158064;23;20388;-78
2021/06/28 07:58:17;;;;;;;18.57;11.30;;;23.30;97.30;;;;;;6158427;23;20160;-79
2021/06/28 08:00:43;;;;;;;16.77;10.43;;;23.40;97.30;;;;;;6158420;23;20264;-79
2021/06/28 08:03:09;;;;;;;12.60;10.60;;;23.50;97.30;;;;;;6157826;23;20159;-78
2021/06/28 08:05:36;;;;;;;14.23;9.00;;;23.60;97.30;;;;;;6158129;23;20236;-78
2021/06/28 08:08:02;;;;;;;14.97;9.90;;;23.70;97.30;;;;;;6158600;23;20721;-78
2021/06/28 08:10:27;;;;;;;11.37;9.87;;;23.80;97.30;;;;;;6184985;23;20832;-78
2021/06/28 08:12:53;;;;;;;17.67;10.57;;;23.90;97.30;;;;;;6157687;23;20451;-79
2021/06/28 08:15:20;;;;;;;12.83;9.97;;;24.00;96.50;;;;;;6158749;23;20160;-78
2021/06/28 08:17:47;;;;;;;13.63;10.20;;;24.20;97.30;;;;;;6159609;23;20161;-78
2021/06/28 08:20:14;;;;;;;13.50;10.00;;;24.30;97.30;;;;;;6158756;23;20394;-78
2021/06/28 08:22:40;;;;;;;13.37;10.30;;;24.30;97.00;;;;;;6157521;23;20386;-79
2021/06/28 08:25:08;;;;;;;15.83;11.07;;;24.40;97.20;;;;;;6157393;23;20442;-78
2021/06/28 08:27:34;;;;;;;14.40;9.77;;;24.50;97.10;;;;;;6158417;23;20786;-78
2021/06/28 08:30:00;;;;;;;13.97;9.60;;;24.60;96.60;;;;;;6158521;23;20455;-78
2021/06/28 08:32:25;;;;;;;11.07;9.00;;;24.60;95.50;;;;;;6157194;23;20431;-79
2021/06/28 08:34:55;;;;;;;10.30;8.70;;;24.80;94.90;;;;;;6158161;23;20232;-79
2021/06/28 08:37:21;;;;;;;12.33;9.00;;;24.80;93.80;;;;;;6157813;23;20153;-79
2021/06/28 08:39:47;;;;;;;11.50;10.03;;;24.90;92.90;;;;;;6158432;23;20395;-78
2021/06/28 08:42:15;;;;;;;10.20;8.33;;;25.00;93.60;;;;;;6184066;23;20506;-78
2021/06/28 08:44:44;;;;;;;9.80;8.57;;;25.10;93.80;;;;;;6158235;23;20219;-78
2021/06/28 08:47:10;;;;;;;9.73;8.53;;;25.10;94.00;;;;;;6159238;23;20376;-79
2021/06/28 08:49:37;;;;;;;11.10;9.57;;;25.20;93.10;;;;;;6159460;23;20387;-79
2021/06/28 08:52:04;;;;;;;10.37;8.40;;;25.20;89.90;;;;;;6159184;23;20415;-78
2021/06/28 08:54:31;;;;;;;11.60;8.53;;;25.20;89.60;;;;;;6159445;23;20384;-79
2021/06/28 08:56:57;;;;;;;8.73;7.90;;;25.20;89.10;;;;;;6161548;23;20475;-78
2021/06/28 08:59:23;;;;;;;10.80;8.20;;;25.20;90.00;;;;;;6187606;23;20371;-78
2021/06/28 09:01:49;;;;;;;9.47;8.00;;;25.30;90.60;;;;;;6159821;23;20805;-79
2021/06/28 09:04:15;;;;;;;12.00;8.93;;;25.40;89.50;;;;;;6161415;23;20180;-79
2021/06/28 09:06:42;;;;;;;11.60;8.70;;;25.40;90.20;;;;;;6187132;23;20928;-78
2021/06/28 09:09:13;;;;;;;13.73;8.50;;;25.60;91.10;;;;;;6161240;23;20387;-79
2021/06/28 09:11:47;;;;;;;9.97;8.73;;;25.70;90.10;;;;;;6160607;23;20426;-80
2021/06/28 09:14:15;;;;;;;11.70;8.87;;;25.80;90.00;;;;;;6160865;23;20418;-79
2021/06/28 09:16:43;;;;;;;9.60;7.80;;;25.90;88.70;;;;;;6161436;23;20392;-78
2021/06/28 09:19:18;;;;;;;9.57;7.63;;;25.90;88.50;;;;;;6162306;23;20883;-79
2021/06/28 09:21:51;;;;;;;11.23;8.50;;;26.00;89.20;;;;;;6160874;23;20946;-78
2021/06/28 09:24:37;;;;;;;10.03;8.00;;;26.10;90.50;;;;;;6161873;23;20869;-80
2021/06/28 09:27:09;;;;;;;9.33;7.23;;;26.10;88.40;;;;;;6161368;23;20407;-79
2021/06/28 09:29:49;;;;;;;10.83;7.90;;;26.20;88.00;;;;;;6160263;23;20427;-79
2021/06/28 09:32:16;;;;;;;11.60;8.03;;;26.30;87.60;;;;;;6186059;23;20494;-79
2021/06/28 09:34:43;;;;;;;10.57;8.50;;;26.40;89.00;;;;;;6161196;23;20538;-79
2021/06/28 09:37:17;;;;;;;8.50;7.80;;;26.50;88.50;;;;;;6160799;23;20395;-79
2021/06/28 09:39:45;;;;;;;10.83;7.80;;;26.60;88.60;;;;;;6160437;23;20390;-79
2021/06/28 09:42:14;;;;;;;10.73;7.93;;;26.70;88.80;;;;;;6186779;23;20431;-79
2021/06/28 09:45:03;;;;;;;8.00;7.60;;;26.80;89.90;;;;;;6160828;23;20387;-80
2021/06/28 09:47:36;;;;;;;9.10;8.20;;;26.90;88.20;;;;;;6160752;23;20390;-79
2021/06/28 09:50:08;;;;;;;12.67;7.90;;;26.90;88.20;;;;;;6159771;23;20395;-79
2021/06/28 09:52:45;;;;;;;12.30;7.97;;;26.90;87.60;;;;;;6159956;23;20646;-79
2021/06/28 09:55:18;;;;;;;9.70;7.70;;;27.10;89.10;;;;;;6160418;23;20518;-79
2021/06/28 09:58:09;;;;;;;9.83;7.80;;;27.10;88.10;;;;;;6160539;23;20380;-79
2021/06/28 10:00:40;;;;;;;8.17;7.00;;;27.20;87.60;;;;;;6159426;23;20427;-80
2021/06/28 10:03:22;;;;;;;9.80;6.90;;;27.40;87.70;;;;;;6159854;23;20399;-79
2021/06/28 10:06:02;;;;;;;9.30;7.53;;;27.40;87.40;;;;;;6189839;23;20375;-79
2021/06/28 10:08:37;;;;;;;7.87;6.63;;;27.50;86.80;;;;;;6137908;23;20916;-79
2021/06/28 10:11:17;;;;;;;6.00;5.80;;;27.60;87.60;;;;;;6160310;23;20947;-79
2021/06/28 10:13:58;;;;;;;9.07;7.00;;;27.70;86.20;;;;;;6166213;23;20398;-80
2021/06/28 10:16:27;;;;;;;8.30;6.73;;;27.80;85.90;;;;;;6161518;23;20383;-79
2021/06/28 10:18:55;;;;;;;7.70;6.07;;;27.80;85.00;;;;;;6161593;23;20396;-79
2021/06/28 10:21:21;;;;;;;8.47;6.80;;;27.90;84.00;;;;;;6161289;23;20526;-80
2021/06/28 10:23:47;;;;;;;8.50;6.83;;;27.90;84.70;;;;;;6161545;23;20396;-80
2021/06/28 10:26:13;;;;;;;6.80;6.47;;;28.00;84.30;;;;;;6162558;23;20701;-80
2021/06/28 10:28:39;;;;;;;12.33;6.60;;;28.10;84.70;;;;;;6162649;23;20156;-80
2021/06/28 10:31:06;;;;;;;6.90;6.60;;;28.20;84.50;;;;;;6160427;23;20411;-79
2021/06/28 10:33:34;;;;;;;7.53;6.30;;;28.30;85.60;;;;;;6160679;23;20171;-79
2021/06/28 10:36:09;;;;;;;15.53;6.63;;;28.30;84.10;;;;;;6161791;23;20470;-79
2021/06/28 10:38:45;;;;;;;6.77;6.37;;;28.40;84.20;;;;;;6188687;23;20383;-79
2021/06/28 10:41:11;;;;;;;9.00;5.60;;;28.50;83.10;;;;;;6161804;23;20442;-80
2021/06/28 10:43:38;;;;;;;7.60;6.17;;;28.60;84.30;;;;;;6188903;23;20399;-79
2021/06/28 10:46:07;;;;;;;8.97;6.40;;;28.70;83.40;;;;;;6187498;23;20177;-79
2021/06/28 10:48:48;;;;;;;7.03;6.00;;;28.80;83.80;;;;;;6162623;23;20383;-80
2021/06/28 10:51:18;;;;;;;5.97;5.67;;;28.80;83.70;;;;;;6161213;23;20408;-80
2021/06/28 10:53:44;;;;;;;8.57;7.10;;;28.80;82.40;;;;;;6161951;23;20380;-80
2021/06/28 10:56:34;;;;;;;6.67;5.90;;;28.80;83.20;;;;;;6161447;23;20395;-79
2021/06/28 10:59:04;;;;;;;6.13;5.70;;;28.80;80.50;;;;;;6171117;23;20223;-80
2021/06/28 11:01:39;;;;;;;6.70;5.77;;;28.80;78.00;;;;;;6166726;23;20469;-79
2021/06/28 11:04:06;;;;;;;6.90;6.00;;;28.80;79.60;;;;;;6193663;23;20379;-80
2021/06/28 11:06:32;;;;;;;6.80;5.60;;;28.90;79.30;;;;;;6191548;23;20387;-80
2021/06/28 11:09:08;;;;;;;6.37;5.87;;;29.00;81.60;;;;;;6219698;23;20374;-80
2021/06/28 11:11:46;;;;;;;6.47;5.60;;;29.00;82.50;;;;;;6193656;23;20175;-80
2021/06/28 11:14:18;;;;;;;5.83;5.43;;;29.10;80.30;;;;;;6220160;23;20859;-80
2021/06/28 11:17:08;;;;;;;11.00;5.93;;;29.20;79.00;;;;;;6192169;23;20391;-81
2021/06/28 11:19:48;;;;;;;7.90;5.60;;;29.10;79.30;;;;;;6190839;23;20383;-80
2021/06/28 11:22:32;;;;;;;7.10;5.57;;;29.20;80.10;;;;;;6218473;23;20480;-81
2021/06/28 11:25:03;;;;;;;9.13;5.87;;;29.30;79.80;;;;;;6192533;23;20370;-81
2021/06/28 11:27:29;;;;;;;6.10;5.07;;;29.20;76.60;;;;;;6191991;23;20821;-81
2021/06/28 11:29:56;;;;;;;5.13;4.80;;;29.30;77.30;;;;;;6190468;23;20407;-81
2021/06/28 11:32:27;;;;;;;5.77;5.00;;;29.20;77.20;;;;;;6217717;23;20399;-81
2021/06/28 11:34:54;;;;;;;6.27;4.70;;;29.20;78.60;;;;;;6191958;23;20379;-81
2021/06/28 11:37:20;;;;;;;5.10;4.77;;;29.30;80.20;;;;;;6192084;23;20441;-81
2021/06/28 11:39:56;;;;;;;6.40;4.90;;;29.30;76.80;;;;;;6191655;23;20387;-81
2021/06/28 11:42:31;;;;;;;6.90;5.70;;;29.50;79.90;;;;;;6190981;23;20716;-80
2021/06/28 11:45:07;;;;;;;7.13;5.10;;;29.50;80.00;;;;;;6192936;23;20375;-81
2021/06/28 11:47:45;;;;;;;6.17;5.53;;;29.60;80.50;;;;;;6192220;23;20895;-80
2021/06/28 11:50:31;;;;;;;7.83;5.83;;;29.70;81.00;;;;;;6191449;23;20383;-81
2021/06/28 11:53:11;;;;;;;5.47;5.17;;;29.90;83.80;;;;;;6193262;23;20374;-81
2021/06/28 11:55:46;;;;;;;5.13;4.93;;;30.00;83.80;;;;;;6193393;23;20782;-80
2021/06/28 11:58:11;;;;;;;5.67;5.40;;;30.10;82.20;;;;;;6193589;23;20707;-81
2021/06/28 12:00:37;;;;;;;7.70;5.23;;;30.20;82.90;;;;;;6192183;23;20766;-82
2021/06/28 12:03:13;;;;;;;6.53;5.03;;;30.20;80.00;;;;;;6192081;23;20513;-81
2021/06/28 12:05:40;;;;;;;6.80;4.33;;;30.20;81.80;;;;;;6193107;23;20581;-81
2021/06/28 12:08:06;;;;;;;6.60;5.60;;;30.20;81.60;;;;;;6193218;23;20379;-81
2021/06/28 12:10:31;;;;;;;5.90;5.63;;;30.20;78.50;;;;;;6193695;23;20857;-81
2021/06/28 12:12:58;;;;;;;7.20;4.70;;;30.20;81.00;;;;;;6193903;23;20394;-81
2021/06/28 12:15:30;;;;;;;6.70;4.80;;;30.30;80.40;;;;;;6193330;23;20159;-81
2021/06/28 12:17:57;;;;;;;5.40;5.20;;;30.40;81.50;;;;;;6194579;23;20386;-81
2021/06/28 12:20:23;;;;;;;5.33;4.83;;;30.40;78.20;;;;;;6192702;23;20410;-81
2021/06/28 12:22:51;;;;;;;5.80;5.27;;;30.40;79.10;;;;;;6192768;23;20387;-81
2021/06/28 12:25:19;;;;;;;5.33;5.13;;;30.40;80.30;;;;;;6193215;23;20159;-81
2021/06/28 12:27:48;;;;;;;5.80;5.00;;;30.40;78.70;;;;;;6194246;23;20379;-81
2021/06/28 12:30:22;;;;;;;5.80;4.43;;;30.40;79.50;;;;;;6195371;23;20390;-81
2021/06/28 12:32:50;;;;;;;5.70;5.07;;;30.40;80.40;;;;;;6196635;23;20382;-81
2021/06/28 12:35:23;;;;;;;7.17;5.00;;;30.30;77.90;;;;;;6197521;23;20474;-81
2021/06/28 12:37:54;;;;;;;6.30;4.47;;;30.40;78.50;;;;;;6195701;23;20428;-81
2021/06/28 12:40:21;;;;;;;4.77;4.20;;;30.50;78.00;;;;;;6219604;23;20466;-81
2021/06/28 12:42:53;;;;;;;4.90;4.60;;;30.50;77.00;;;;;;6193260;23;20868;-80
2021/06/28 12:45:22;;;;;;;6.57;5.20;;;30.50;78.20;;;;;;6192210;23;20383;-81
2021/06/28 12:47:51;;;;;;;5.00;4.70;;;30.60;81.50;;;;;;6192047;23;20462;-81
2021/06/28 12:50:21;;;;;;;4.97;4.73;;;30.60;76.40;;;;;;6193252;23;20849;-81
2021/06/28 12:52:47;;;;;;;7.03;5.03;;;30.70;76.00;;;;;;6217759;23;20437;-81
2021/06/28 12:55:21;;;;;;;7.10;5.17;;;30.90;80.00;;;;;;6192364;23;20410;-83
2021/06/28 12:58:00;;;;;;;5.80;4.80;;;31.10;83.60;;;;;;6190844;23;20390;-81
2021/06/28 13:00:27;;;;;;;5.80;5.27;;;31.30;83.70;;;;;;6218375;23;20446;-81
2021/06/28 13:03:14;;;;;;;5.50;5.13;;;31.50;81.60;;;;;;6192086;23;20512;-81
2021/06/28 13:05:59;;;;;;;5.60;5.30;;;31.40;73.90;;;;;;6189779;23;20525;-81
2021/06/28 13:08:36;;;;;;;5.33;4.57;;;31.30;74.70;;;;;;6191204;23;20633;-81
2021/06/28 13:11:14;;;;;;;5.40;5.07;;;31.40;74.80;;;;;;6193028;23;20444;-81
2021/06/28 13:14:07;;;;;;;5.50;5.20;;;31.50;76.80;;;;;;6192657;23;20760;-81
2021/06/28 13:19:10;;;;;;;6.40;4.97;;;31.50;77.50;;;;;;6227264;23;20362;-81
2021/06/28 13:21:39;;;;;;;4.87;4.67;;;31.60;80.60;;;;;;6192105;23;21013;-81
2021/06/28 13:24:07;;;;;;;5.17;4.87;;;31.80;80.40;;;;;;6191505;23;20445;-82
2021/06/28 13:26:38;;;;;;;5.20;4.90;;;31.80;78.40;;;;;;6190833;23;20389;-82
2021/06/28 13:29:19;;;;;;;6.10;5.63;;;31.70;77.00;;;;;;6189871;23;20473;-81
2021/06/28 13:31:55;;;;;;;5.77;5.13;;;31.50;77.70;;;;;;6190399;23;20415;-81
2021/06/28 13:34:22;;;;;;;6.00;5.53;;;31.40;76.00;;;;;;6191339;23;20444;-81
2021/06/28 13:37:13;;;;;;;7.00;5.40;;;31.50;74.70;;;;;;6190516;23;20394;-83
2021/06/28 13:39:54;;;;;;;5.57;5.30;;;31.50;76.70;;;;;;6190296;23;20385;-82
2021/06/28 13:42:30;;;;;;;4.93;4.60;;;31.50;79.00;;;;;;6216787;23;20428;-81
2021/06/28 13:44:56;;;;;;;6.27;5.20;;;31.50;78.00;;;;;;6218875;23;20442;-81
2021/06/28 13:47:22;;;;;;;5.63;5.30;;;31.40;79.10;;;;;;6190867;23;20482;-81
2021/06/28 13:49:48;;;;;;;5.70;5.40;;;31.40;79.70;;;;;;6217087;23;20383;-82
2021/06/28 13:52:13;;;;;;;7.67;5.70;;;31.30;80.70;;;;;;6190736;23;20176;-83
2021/06/28 13:54:39;;;;;;;6.13;5.30;;;31.10;78.70;;;;;;6190441;23;20167;-81
2021/06/28 13:57:05;;;;;;;6.20;5.30;;;31.10;77.90;;;;;;6192044;23;20184;-81
2021/06/28 13:59:31;;;;;;;5.73;5.40;;;31.30;83.70;;;;;;6192352;23;20159;-81
2021/06/28 14:01:56;;;;;;;5.93;5.23;;;31.60;81.40;;;;;;6190240;23;20446;-81
2021/06/28 14:04:22;;;;;;;5.87;5.07;;;31.70;82.20;;;;;;6189986;23;20156;-81
2021/06/28 14:06:47;;;;;;;5.80;5.50;;;31.80;82.20;;;;;;6188380;23;20175;-82
2021/06/28 14:09:13;;;;;;;6.00;5.70;;;31.90;80.20;;;;;;6189873;23;20202;-81
2021/06/28 14:11:39;;;;;;;7.03;5.67;;;32.00;82.00;;;;;;6190634;23;20183;-81
2021/06/28 14:14:05;;;;;;;7.10;5.73;;;32.00;81.70;;;;;;6190616;23;20163;-81
2021/06/28 14:16:30;;;;;;;6.33;5.93;;;32.10;82.50;;;;;;6190191;23;20156;-82
2021/06/28 14:18:56;;;;;;;5.90;5.60;;;32.10;76.40;;;;;;6191783;23;20160;-81
2021/06/28 14:21:22;;;;;;;5.70;5.27;;;32.10;77.20;;;;;;6191897;23;20227;-81
2021/06/28 14:23:48;;;;;;;7.10;5.57;;;32.30;80.90;;;;;;6191215;23;20609;-81
2021/06/28 14:26:14;;;;;;;6.77;6.40;;;32.30;78.40;;;;;;6191723;23;20446;-81
2021/06/28 14:28:39;;;;;;;5.93;5.63;;;32.40;79.40;;;;;;6190801;23;20242;-81
2021/06/28 14:31:05;;;;;;;5.50;5.20;;;32.60;80.40;;;;;;6192353;23;20184;-81
2021/06/28 14:33:31;;;;;;;5.60;5.30;;;32.70;79.90;;;;;;6191961;23;20160;-82
2021/06/28 14:35:56;;;;;;;8.93;5.67;;;32.80;79.80;;;;;;6192004;23;20174;-81
2021/06/28 14:38:22;;;;;;;6.00;5.73;;;32.90;77.20;;;;;;6217468;23;20188;-81
2021/06/28 14:40:47;;;;;;;5.67;5.37;;;33.00;77.80;;;;;;6190714;23;20720;-82
2021/06/28 14:43:14;;;;;;;7.10;5.67;;;33.20;78.20;;;;;;6192322;23;20186;-81
2021/06/28 14:45:39;;;;;;;7.10;5.70;;;33.30;78.70;;;;;;6191726;23;20187;-82
2021/06/28 14:48:10;;;;;;;5.47;5.17;;;33.40;75.60;;;;;;6190819;23;20393;-82
2021/06/28 14:50:37;;;;;;;8.33;5.90;;;33.40;78.00;;;;;;6190178;23;20190;-81
2021/06/28 14:53:02;;;;;;;5.53;5.17;;;33.50;76.50;;;;;;6167061;23;20872;-81
2021/06/28 14:55:28;;;;;;;5.93;5.60;;;33.60;77.80;;;;;;6190946;23;20421;-81
2021/06/28 14:57:54;;;;;;;5.63;5.33;;;33.60;77.70;;;;;;6190427;23;20547;-82
2021/06/28 15:00:20;;;;;;;6.63;5.30;;;33.70;76.60;;;;;;6191036;23;20160;-82
2021/06/28 15:02:45;;;;;;;5.10;4.70;;;33.80;77.90;;;;;;6191464;23;20282;-81
2021/06/28 15:05:12;;;;;;;7.30;5.70;;;33.80;74.30;;;;;;6218762;23;20148;-82
2021/06/28 15:07:38;;;;;;;6.23;5.70;;;33.90;76.80;;;;;;6190593;23;20227;-82
2021/06/28 15:10:04;;;;;;;7.27;5.47;;;33.90;77.10;;;;;;6189129;23;20387;-81
2021/06/28 15:12:30;;;;;;;5.33;5.03;;;33.90;78.50;;;;;;6218230;23;20471;-81
2021/06/28 15:14:57;;;;;;;7.40;5.40;;;34.00;77.00;;;;;;6191775;23;20391;-82
2021/06/28 15:17:23;;;;;;;5.83;5.57;;;34.00;76.80;;;;;;6190259;23;20399;-82
2021/06/28 15:19:48;;;;;;;6.70;5.30;;;34.00;77.20;;;;;;6188554;23;20383;-82
2021/06/28 15:22:14;;;;;;;6.13;5.17;;;33.90;74.50;;;;;;6190023;23;20438;-82
2021/06/28 15:24:41;;;;;;;5.33;5.03;;;33.90;72.70;;;;;;6190604;23;20156;-81
2021/06/28 15:27:07;;;;;;;5.60;5.30;;;33.80;71.80;;;;;;6190391;23;20152;-81
2021/06/28 15:29:34;;;;;;;6.10;5.00;;;33.80;73.90;;;;;;6189768;23;20387;-81
2021/06/28 15:32:01;;;;;;;6.03;5.30;;;33.90;73.20;;;;;;6189153;23;20429;-83
2021/06/28 15:34:27;;;;;;;7.53;5.00;;;34.00;76.40;;;;;;6190553;23;20394;-82
2021/06/28 15:36:54;;;;;;;5.73;5.00;;;34.10;74.70;;;;;;6190511;23;20479;-82
2021/06/28 15:39:19;;;;;;;6.17;5.67;;;34.20;76.40;;;;;;6189503;23;20160;-81
2021/06/28 15:41:45;;;;;;;6.47;6.07;;;34.30;75.90;;;;;;6188790;23;20430;-81
2021/06/28 15:44:10;;;;;;;6.10;5.73;;;34.30;75.30;;;;;;6190241;23;20172;-82
2021/06/28 15:46:36;;;;;;;7.43;5.60;;;34.30;78.80;;;;;;6189714;23;20158;-82
2021/06/28 15:49:02;;;;;;;5.97;5.63;;;34.30;74.30;;;;;;6190253;23;20151;-82
2021/06/28 15:51:27;;;;;;;5.47;5.17;;;34.30;77.30;;;;;;6188464;23;20175;-82
2021/06/28 15:53:53;;;;;;;6.10;5.40;;;34.20;76.70;;;;;;6188991;23;20156;-82
2021/06/28 15:56:22;;;;;;;7.13;5.87;;;34.00;73.10;;;;;;6189698;23;20156;-82
2021/06/28 15:58:48;;;;;;;5.80;5.30;;;34.10;75.60;;;;;;6189475;23;20160;-81
2021/06/28 16:01:14;;;;;;;5.57;5.27;;;34.10;77.80;;;;;;6187577;23;20481;-83
2021/06/28 16:03:40;;;;;;;7.00;5.30;;;34.10;77.80;;;;;;6188201;23;20379;-82
2021/06/28 16:06:05;;;;;;;5.53;5.20;;;34.10;76.10;;;;;;6189227;23;20190;-81
2021/06/28 16:08:32;;;;;;;6.13;5.60;;;34.00;76.60;;;;;;6189663;23;20159;-82
2021/06/28 16:10:58;;;;;;;5.47;5.17;;;34.00;76.40;;;;;;6215143;23;20633;-82
2021/06/28 16:13:23;;;;;;;6.27;5.40;;;33.90;77.60;;;;;;6188530;23;20410;-82
2021/06/28 16:15:51;;;;;;;7.20;5.00;;;34.00;77.50;;;;;;6190001;23;20422;-81
2021/06/28 16:18:16;;;;;;;5.97;5.33;;;34.00;77.40;;;;;;6189820;23;20263;-83
2021/06/28 16:20:42;;;;;;;6.13;5.53;;;34.00;76.30;;;;;;6187878;23;20454;-82